createdAt,value
2022-09-23T00:03:17.815Z,12.47
2022-09-23T00:08:20.981Z,12.44
2022-09-23T00:13:25.929Z,12.39
2022-09-23T00:18:28.832Z,12.34
2022-09-23T00:23:32.053Z,12.30
2022-09-23T00:28:37.167Z,12.25
2022-09-23T00:33:41.333Z,12.19
2022-09-23T00:38:45.556Z,12.14
2022-09-23T00:43:51.807Z,12.07
2022-09-23T00:49:01.053Z,11.99
2022-09-23T00:54:05.489Z,11.92
2022-09-23T00:59:10.821Z,11.86
2022-09-23T01:04:14.785Z,11.74
2022-09-23T01:09:18.452Z,11.67
2022-09-23T01:14:37.764Z,11.58
2022-09-23T01:20:06.952Z,11.55
2022-09-23T01:25:27.899Z,11.51
2022-09-23T01:30:52.157Z,11.43
2022-09-23T01:36:10.073Z,11.39
2022-09-23T01:41:27.666Z,11.37
2022-09-23T01:46:36.691Z,11.34
2022-09-23T01:51:44.350Z,11.36
2022-09-23T01:56:52.544Z,11.35
2022-09-23T02:02:01.175Z,11.32
2022-09-23T02:07:09.342Z,11.28
2022-09-23T02:12:18.497Z,11.25
2022-09-23T02:17:29.643Z,11.19
2022-09-23T02:22:40.540Z,11.13
2022-09-23T02:27:48.580Z,11.07
2022-09-23T02:32:56.473Z,11.04
2022-09-23T02:38:10.436Z,11.03
2022-09-23T02:43:19.965Z,10.99
2022-09-23T02:48:28.737Z,10.97
2022-09-23T02:53:34.708Z,10.96
2022-09-23T02:58:38.373Z,10.96
2022-09-23T03:03:48.167Z,11.00
2022-09-23T03:08:57.669Z,11.05
2022-09-23T03:14:17.868Z,11.12
2022-09-23T03:19:28.836Z,11.15
2022-09-23T03:24:34.634Z,11.20
2022-09-23T03:29:37.636Z,11.23
2022-09-23T03:34:44.446Z,11.23
2022-09-23T03:39:51.305Z,11.27
2022-09-23T03:44:57.246Z,11.29
2022-09-23T03:50:01.524Z,11.31
2022-09-23T03:55:05.020Z,11.34
2022-09-23T04:00:09.478Z,11.33
2022-09-23T04:05:18.336Z,11.33
2022-09-23T04:10:21.227Z,11.38
2022-09-23T04:15:24.164Z,11.39
2022-09-23T04:20:29.111Z,11.41
2022-09-23T04:25:32.299Z,11.42
2022-09-23T04:30:35.136Z,11.41
2022-09-23T04:35:40.494Z,11.48
2022-09-23T04:40:43.592Z,11.50
2022-09-23T04:45:46.854Z,11.52
2022-09-23T04:50:51.173Z,11.52
2022-09-23T04:55:55.157Z,11.52
2022-09-23T05:01:02.987Z,11.54
2022-09-23T05:06:11.100Z,11.57
2022-09-23T05:11:14.436Z,11.56
2022-09-23T05:16:18.485Z,11.56
2022-09-23T05:21:24.695Z,11.58
2022-09-23T05:26:29.367Z,11.60
2022-09-23T05:31:32.473Z,11.62
2022-09-23T05:36:39.172Z,11.64
2022-09-23T05:41:43.580Z,11.68
2022-09-23T05:46:46.614Z,11.65
2022-09-23T05:51:50.929Z,11.70
2022-09-23T05:56:54.019Z,11.71
2022-09-23T06:01:57.109Z,11.73
2022-09-23T06:07:03.498Z,11.72
2022-09-23T06:12:07.600Z,11.77
2022-09-23T06:17:10.622Z,11.83
2022-09-23T06:22:17.009Z,11.88
2022-09-23T06:27:19.928Z,11.96
2022-09-23T06:32:23.348Z,12.05
2022-09-23T06:37:28.018Z,12.15
2022-09-23T06:42:30.998Z,12.30
2022-09-23T06:47:34.273Z,12.41
2022-09-23T06:52:38.530Z,12.55
2022-09-23T06:57:41.604Z,12.68
2022-09-23T07:02:44.763Z,12.76
2022-09-23T07:07:49.753Z,12.88
2022-09-23T07:12:52.812Z,12.92
2022-09-23T07:17:55.929Z,12.97
2022-09-23T07:23:00.489Z,13.01
2022-09-23T07:28:03.671Z,13.08
2022-09-23T07:33:22.758Z,13.16
2022-09-23T07:38:31.684Z,13.23
2022-09-23T07:43:35.101Z,13.40
2022-09-23T07:48:39.074Z,13.60
2022-09-23T07:53:43.490Z,13.81
2022-09-23T07:58:59.957Z,13.99
2022-09-23T08:04:06.397Z,14.17
2022-09-23T08:09:11.651Z,14.39
2022-09-23T08:14:17.966Z,14.55
2022-09-23T08:19:21.481Z,14.71
2022-09-23T08:24:26.702Z,14.95
2022-09-23T08:29:29.861Z,15.19
2022-09-23T08:34:32.929Z,15.37
2022-09-23T08:39:37.404Z,15.62
2022-09-23T08:44:48.040Z,15.86
2022-09-23T08:50:04.605Z,15.96
2022-09-23T08:55:13.512Z,16.16
2022-09-23T09:00:22.221Z,16.69
2022-09-23T09:05:28.781Z,17.12
2022-09-23T09:10:41.749Z,17.49
2022-09-23T09:15:55.029Z,17.90
2022-09-23T09:21:01.423Z,18.11
2022-09-23T09:26:07.522Z,18.23
2022-09-23T09:31:24.274Z,18.34
2022-09-23T09:36:37.595Z,18.42
2022-09-23T09:41:46.771Z,18.57
2022-09-23T09:47:01.866Z,18.84
2022-09-23T09:52:21.573Z,19.06
2022-09-23T09:57:41.015Z,19.40
2022-09-23T10:02:44.302Z,19.70
2022-09-23T10:07:48.552Z,19.82
2022-09-23T10:12:53.678Z,20.06
2022-09-23T10:17:56.867Z,20.15
2022-09-23T10:23:08.748Z,20.11
2022-09-23T10:28:45.708Z,20.22
2022-09-23T10:33:51.525Z,20.23
2022-09-23T10:39:19.893Z,20.37
2022-09-23T10:44:51.019Z,20.42
2022-09-23T10:50:15.677Z,20.64
2022-09-23T10:55:32.096Z,20.76
2022-09-23T11:00:44.745Z,20.99
2022-09-23T11:06:01.877Z,21.12
2022-09-23T11:11:20.687Z,21.14
2022-09-23T11:16:41.475Z,21.25
2022-09-23T11:21:55.491Z,21.43
2022-09-23T11:27:09.551Z,21.43
2022-09-23T11:32:32.200Z,21.53
2022-09-23T11:37:41.975Z,21.53
2022-09-23T11:42:53.610Z,21.61
2022-09-23T11:48:02.934Z,21.64
2022-09-23T11:53:10.488Z,21.61
2022-09-23T11:58:25.673Z,21.68
2022-09-23T12:03:44.866Z,21.78
2022-09-23T12:08:53.255Z,21.85
2022-09-23T12:14:04.187Z,21.84
2022-09-23T12:19:19.233Z,21.92
2022-09-23T12:24:46.317Z,21.94
2022-09-23T12:29:52.776Z,21.95
2022-09-23T12:34:57.759Z,21.79
2022-09-23T12:40:07.857Z,21.63
2022-09-23T12:45:39.092Z,21.56
2022-09-23T12:51:07.815Z,21.64
2022-09-23T12:56:17.187Z,21.62
2022-09-23T13:01:22.369Z,21.59
2022-09-23T13:06:41.335Z,21.64
2022-09-23T13:11:48.191Z,21.69
2022-09-23T13:16:52.463Z,21.78
2022-09-23T13:22:09.346Z,21.78
2022-09-23T13:27:26.622Z,21.82
2022-09-23T13:32:32.992Z,21.80
2022-09-23T13:37:43.907Z,21.66
2022-09-23T13:42:51.343Z,21.59
2022-09-23T13:47:57.210Z,21.50
2022-09-23T13:53:07.552Z,21.50
2022-09-23T13:58:21.093Z,21.47
2022-09-23T14:03:35.350Z,21.28
2022-09-23T14:08:45.513Z,20.96
2022-09-23T14:13:54.210Z,21.01
2022-09-23T14:18:59.723Z,21.00
2022-09-23T14:24:19.434Z,20.83
2022-09-23T14:29:30.045Z,20.88
2022-09-23T14:34:45.134Z,20.81
2022-09-23T14:39:57.587Z,20.78
2022-09-23T14:45:00.930Z,20.69
2022-09-23T14:50:21.160Z,20.61
2022-09-23T14:55:29.379Z,20.39
2022-09-23T15:00:33.004Z,20.18
2022-09-23T15:05:44.275Z,19.93
2022-09-23T15:10:50.064Z,19.91
2022-09-23T15:15:54.528Z,20.00
2022-09-23T15:21:01.905Z,19.82
2022-09-23T15:26:10.960Z,19.42
2022-09-23T15:31:15.233Z,19.19
2022-09-23T15:36:20.904Z,18.87
2022-09-23T15:41:25.598Z,18.67
2022-09-23T15:46:33.922Z,18.44
2022-09-23T15:51:38.411Z,18.38
2022-09-23T15:56:42.725Z,18.30
2022-09-23T16:01:45.867Z,18.21
2022-09-23T16:06:49.162Z,18.16
2022-09-23T16:11:53.596Z,18.10
2022-09-23T16:16:56.797Z,18.04
2022-09-23T16:22:00.261Z,17.97
2022-09-23T16:27:07.921Z,17.90
2022-09-23T16:32:11.203Z,17.81
2022-09-23T16:37:18.034Z,17.74
2022-09-23T16:54:55.359Z,17.50
2022-09-23T17:40:13.193Z,16.82
2022-09-23T17:45:16.206Z,16.75
2022-09-23T17:50:19.761Z,16.67
2022-09-23T17:55:23.994Z,16.62
2022-09-23T18:00:27.878Z,16.53
2022-09-23T18:05:30.716Z,16.51
2022-09-23T18:10:35.134Z,16.43
2022-09-23T18:15:38.665Z,16.35
2022-09-23T18:20:41.609Z,16.31
2022-09-23T18:25:45.957Z,16.22
2022-09-23T18:30:54.294Z,16.20
2022-09-23T18:36:00.241Z,16.13
2022-09-23T18:41:04.889Z,16.22
2022-09-23T18:46:11.017Z,16.25
2022-09-23T18:51:16.552Z,16.20
2022-09-23T18:56:22.183Z,16.16
2022-09-23T19:01:25.398Z,16.14
2022-09-23T19:06:29.241Z,16.22
2022-09-23T19:11:36.350Z,16.29
2022-09-23T19:16:40.517Z,16.28
2022-09-23T19:21:43.775Z,16.25
2022-09-23T19:26:48.542Z,16.25
2022-09-23T19:31:52.191Z,16.19
2022-09-23T19:36:57.516Z,15.92
2022-09-23T19:42:01.876Z,15.74
2022-09-23T19:47:05.130Z,15.58
2022-09-23T19:52:08.301Z,15.52
2022-09-23T19:57:12.772Z,15.48
2022-09-23T20:02:17.040Z,15.43
2022-09-23T20:07:20.703Z,15.38
2022-09-23T20:12:25.187Z,15.35
2022-09-23T20:17:30.640Z,15.30
2022-09-23T20:22:34.699Z,15.23
2022-09-23T20:27:40.967Z,15.26
2022-09-23T20:32:44.883Z,15.20
2022-09-23T20:37:48.005Z,15.19
2022-09-23T20:42:53.091Z,15.21
2022-09-23T20:48:00.340Z,15.12
2022-09-23T20:53:03.238Z,15.05
2022-09-23T20:58:07.630Z,15.01
2022-09-23T21:03:10.648Z,14.98
2022-09-23T21:08:13.983Z,14.91
2022-09-23T21:13:18.334Z,14.91
2022-09-23T21:18:22.746Z,14.90
2022-09-23T21:23:27.258Z,14.88
2022-09-23T21:28:35.956Z,14.89
2022-09-23T21:33:39.502Z,14.91
2022-09-23T21:38:45.109Z,14.82
2022-09-23T21:43:49.938Z,14.84
2022-09-23T21:48:55.192Z,14.84
2022-09-23T21:54:01.117Z,14.79
2022-09-23T21:59:09.549Z,14.74
2022-09-23T22:04:17.082Z,14.71
2022-09-23T22:09:22.238Z,14.68
2022-09-23T22:14:27.378Z,14.63
2022-09-23T22:19:35.388Z,14.54
2022-09-23T22:24:39.140Z,14.48
2022-09-23T22:30:01.073Z,14.46
2022-09-23T22:35:04.343Z,14.45
2022-09-23T22:40:09.663Z,14.45
2022-09-23T22:45:14.440Z,14.39
2022-09-23T22:50:17.507Z,14.37
2022-09-23T22:55:20.716Z,14.35
2022-09-23T23:00:24.989Z,14.29
2022-09-23T23:05:28.221Z,14.25
2022-09-23T23:10:31.228Z,14.21
2022-09-23T23:15:35.668Z,14.16
2022-09-23T23:20:38.724Z,14.08
2022-09-23T23:25:41.655Z,14.08
2022-09-23T23:30:45.988Z,14.09
2022-09-23T23:35:51.761Z,14.11
2022-09-23T23:40:56.361Z,14.10
2022-09-23T23:46:01.557Z,14.11
2022-09-23T23:51:07.027Z,14.10
2022-09-23T23:56:12.334Z,14.11
